CheckWX is a tool to help pilots better visualize weather data.  It is not intended as a substitute for an official pre-flight weather briefing.

01:54:03 UTC

LFRI TAF
La Roche-sur-Yon Airport
La Roche-sur-Yon/Les Ajoncs, France
TAF LFRI 181700Z 1818/1918 30009KT 9999 SCT020 PROB40 TEMPO 1818/1822 -SHRA SCT010 BKN015 BECMG 1900/1902 VRB03KT BKN007 PROB40 TEMPO 1903/1908 2000 BR OVC002 PROB30 TEMPO 1903/1906 0500 FG VV/// BECMG 1909/1911 BKN020

Mar-18@
18:00 UTC

Mar-18 @ 18:00 UTC

Mar-19@
00:00 UTC

Mar-19 @ 00:00 UTC

TAF LFRI 181700Z 1818/1918 30009KT 9999 SCT020

Expired

Wind
  • 300° at 9 KTS
Cloud Levels
  • Scattered at 2,000' AGL

Mar-18@
18:00 UTC

Mar-18 @ 18:00 UTC

Mar-18@
22:00 UTC

Mar-18 @ 22:00 UTC

PROB40 TEMPO 1818/1822 -SHRA SCT010 BKN015

Expired

Conditions
Light Rain
Cloud Levels
  • Scattered at 1,000' AGL
  • Broken at 1,500' AGL

Mar-19@
00:00 UTC

Mar-19 @ 00:00 UTC

Mar-19@
09:00 UTC

Mar-19 @ 09:00 UTC

BECMG 1900/1902 VRB03KT BKN007

Becoming

Becoming Conditions expected by Tue, Mar 19, 2019 @ 02:00 UTC

Wind
  • Variable at 3 KTS
Cloud Levels
  • Broken at 700' AGL

Mar-19@
03:00 UTC

Mar-19 @ 03:00 UTC

Mar-19@
06:00 UTC

Mar-19 @ 06:00 UTC

PROB30 TEMPO 1903/1906 0500 FG VV///

Temporary - 30% Likelihood

Temporary - 30% Likelihood during this time.

Conditions
Fog

Mar-19@
03:00 UTC

Mar-19 @ 03:00 UTC

Mar-19@
08:00 UTC

Mar-19 @ 08:00 UTC

PROB40 TEMPO 1903/1908 2000 BR OVC002

Temporary - 40% Likelihood

Temporary - 40% Likelihood during this time.

Conditions
Mist
Cloud Levels
  • Overcast at 200' AGL

Mar-19@
09:00 UTC

Mar-19 @ 09:00 UTC

Mar-19@
18:00 UTC

Mar-19 @ 18:00 UTC

BECMG 1909/1911 BKN020

Becoming

Becoming Conditions expected by Tue, Mar 19, 2019 @ 11:00 UTC

Wind
  • Variable at 3 KTS
Cloud Levels
  • Broken at 2,000' AGL